Time;durP1;ratioP1;P1;durP2;ratioP2;P2;SDS_P1;SDS_P2;PMS_P1;PMS_P2;Temp;Humidity;BMP_temperature;BMP_pressure;BME280_temperature;BME280_humidity;BME280_pressure;Samples;Min_cycle;Max_cycle;Signal;HPM_P1;HPM_P2
2023/05/12 00:00:34;;;;;;;123.63;39.47;;;;;;;;;;5039107;28;20178;-82
2023/05/12 00:03:02;;;;;;;112.93;40.23;;;;;;;;;;5039344;28;20573;-82
2023/05/12 00:05:28;;;;;;;129.17;41.03;;;;;;;;;;5022748;28;20523;-82
2023/05/12 00:07:55;;;;;;;118.40;41.25;;;;;;;;;;5039164;28;20420;-82
2023/05/12 00:10:21;;;;;;;123.05;41.88;;;;;;;;;;5056957;28;20518;-82
2023/05/12 00:12:47;;;;;;;122.10;42.67;;;;;;;;;;5056943;28;20184;-82
2023/05/12 00:15:13;;;;;;;127.23;43.67;;;;;;;;;;5038215;28;20463;-82
2023/05/12 00:17:39;;;;;;;127.43;42.78;;;;;;;;;;5039062;28;20416;-82
2023/05/12 00:20:06;;;;;;;107.95;41.90;;;;;;;;;;5056670;28;20261;-82
2023/05/12 00:22:32;;;;;;;122.30;40.53;;;;;;;;;;5056879;28;20170;-82
2023/05/12 00:24:58;;;;;;;132.52;43.17;;;;;;;;;;5039468;28;20185;-82
2023/05/12 00:27:24;;;;;;;126.87;43.67;;;;;;;;;;5057209;28;20177;-82
2023/05/12 00:29:50;;;;;;;132.50;44.00;;;;;;;;;;5056862;28;20439;-82
2023/05/12 00:32:16;;;;;;;114.23;40.80;;;;;;;;;;5056629;28;20880;-83
2023/05/12 00:34:42;;;;;;;140.37;46.67;;;;;;;;;;5038984;28;20483;-82
2023/05/12 00:37:08;;;;;;;119.80;44.20;;;;;;;;;;5056739;28;20538;-82
2023/05/12 00:39:35;;;;;;;137.32;47.83;;;;;;;;;;5056534;28;20404;-82
2023/05/12 00:42:01;;;;;;;134.80;47.15;;;;;;;;;;5039131;28;20173;-82
2023/05/12 00:44:27;;;;;;;136.75;45.47;;;;;;;;;;5038709;28;20181;-82
2023/05/12 00:46:54;;;;;;;140.55;45.72;;;;;;;;;;5056299;28;20180;-82
2023/05/12 00:49:20;;;;;;;141.45;49.03;;;;;;;;;;5038436;28;20219;-82
2023/05/12 00:51:46;;;;;;;135.63;44.88;;;;;;;;;;5056272;28;20227;-82
2023/05/12 00:54:12;;;;;;;131.75;46.35;;;;;;;;;;5056593;28;20230;-82
2023/05/12 00:56:39;;;;;;;140.07;44.83;;;;;;;;;;5056091;28;20236;-82
2023/05/12 00:59:05;;;;;;;136.60;46.35;;;;;;;;;;5039202;28;20173;-82
2023/05/12 01:01:32;;;;;;;122.15;44.85;;;;;;;;;;5055972;28;20626;-82
2023/05/12 01:03:58;;;;;;;128.85;43.03;;;;;;;;;;5055866;28;20189;-82
2023/05/12 01:06:45;;;;;;;125.55;42.88;;;;;;;;;;5021951;28;20195;-82
2023/05/12 01:09:11;;;;;;;141.02;45.28;;;;;;;;;;5038395;28;20205;-82
2023/05/12 01:11:37;;;;;;;125.15;45.72;;;;;;;;;;5037525;28;20190;-82
2023/05/12 01:14:03;;;;;;;122.63;41.90;;;;;;;;;;5037918;28;20177;-82
2023/05/12 01:16:33;;;;;;;157.20;48.57;;;;;;;;;;5037787;28;20220;-82
2023/05/12 01:18:59;;;;;;;128.93;41.63;;;;;;;;;;5038233;28;20416;-81
2023/05/12 01:21:25;;;;;;;132.93;43.77;;;;;;;;;;5055265;28;20620;-83
2023/05/12 01:23:55;;;;;;;111.43;40.47;;;;;;;;;;5038484;28;20411;-82
2023/05/12 01:26:22;;;;;;;111.13;38.08;;;;;;;;;;5037876;28;20216;-82
2023/05/12 01:28:48;;;;;;;103.80;38.10;;;;;;;;;;5037813;28;20268;-82
2023/05/12 01:31:14;;;;;;;94.88;35.03;;;;;;;;;;5037916;28;20174;-81
2023/05/12 01:33:42;;;;;;;90.75;37.30;;;;;;;;;;5037651;28;20240;-82
2023/05/12 01:36:08;;;;;;;99.38;36.22;;;;;;;;;;5037589;28;20201;-82
2023/05/12 01:38:34;;;;;;;88.13;35.30;;;;;;;;;;5037689;28;20186;-82
2023/05/12 01:41:01;;;;;;;89.60;34.45;;;;;;;;;;5037609;28;20419;-82
2023/05/12 01:43:27;;;;;;;100.35;36.15;;;;;;;;;;5055232;28;20262;-82
2023/05/12 01:45:53;;;;;;;88.53;35.07;;;;;;;;;;5055310;28;20326;-82
2023/05/12 01:48:19;;;;;;;86.93;34.70;;;;;;;;;;5037842;28;20987;-82
2023/05/12 01:50:45;;;;;;;98.47;36.30;;;;;;;;;;5055482;28;20756;-81
2023/05/12 01:53:11;;;;;;;100.30;38.03;;;;;;;;;;5055598;28;20251;-82
2023/05/12 01:55:37;;;;;;;97.78;35.70;;;;;;;;;;5055183;28;20204;-82
2023/05/12 01:58:03;;;;;;;116.60;35.47;;;;;;;;;;5037300;28;20178;-82
2023/05/12 02:00:29;;;;;;;92.40;36.22;;;;;;;;;;5020847;28;20188;-82
2023/05/12 02:02:55;;;;;;;100.43;36.73;;;;;;;;;;5020847;28;20541;-82
2023/05/12 02:05:21;;;;;;;91.80;34.03;;;;;;;;;;5036855;28;20416;-83
2023/05/12 02:07:47;;;;;;;91.47;34.10;;;;;;;;;;5055284;28;20185;-82
2023/05/12 02:10:13;;;;;;;75.77;30.50;;;;;;;;;;5055171;28;20409;-82
2023/05/12 02:12:39;;;;;;;79.40;31.27;;;;;;;;;;5054925;28;20412;-82
2023/05/12 02:15:06;;;;;;;66.40;30.15;;;;;;;;;;5037526;28;20510;-82
2023/05/12 02:17:31;;;;;;;66.75;29.13;;;;;;;;;;5054583;28;20278;-82
2023/05/12 02:19:57;;;;;;;74.50;29.80;;;;;;;;;;5020332;28;20185;-82
2023/05/12 02:22:23;;;;;;;70.10;30.27;;;;;;;;;;5020604;28;20479;-82
2023/05/12 02:24:49;;;;;;;66.67;31.00;;;;;;;;;;5054723;28;20422;-82
2023/05/12 02:27:15;;;;;;;64.10;29.10;;;;;;;;;;5054925;28;20420;-82
2023/05/12 02:29:41;;;;;;;67.90;30.33;;;;;;;;;;5036865;28;20505;-82
2023/05/12 02:32:07;;;;;;;75.60;31.30;;;;;;;;;;5036846;28;20550;-82
2023/05/12 02:34:33;;;;;;;64.70;30.17;;;;;;;;;;5036200;28;20470;-82
2023/05/12 02:37:00;;;;;;;63.92;29.92;;;;;;;;;;5054409;28;20408;-82
2023/05/12 02:39:26;;;;;;;59.58;27.90;;;;;;;;;;5036917;28;20307;-82
2023/05/12 02:41:51;;;;;;;61.77;28.47;;;;;;;;;;5054887;28;20219;-82
2023/05/12 02:44:21;;;;;;;64.57;27.33;;;;;;;;;;5020500;28;20420;-82
2023/05/12 02:46:47;;;;;;;61.00;28.17;;;;;;;;;;5037334;28;20445;-81
2023/05/12 02:49:13;;;;;;;52.40;25.43;;;;;;;;;;5055086;28;20486;-81
2023/05/12 02:51:39;;;;;;;60.47;28.53;;;;;;;;;;5036532;28;20416;-81
2023/05/12 02:54:05;;;;;;;63.33;28.67;;;;;;;;;;5054754;28;20461;-81
2023/05/12 02:56:31;;;;;;;62.87;29.33;;;;;;;;;;5036702;28;20459;-81
2023/05/12 02:58:57;;;;;;;70.60;29.57;;;;;;;;;;5054632;28;20411;-81
2023/05/12 03:01:23;;;;;;;52.07;26.30;;;;;;;;;;5036242;28;20930;-82
2023/05/12 03:03:49;;;;;;;48.47;25.33;;;;;;;;;;5036601;28;20424;-81
2023/05/12 03:06:15;;;;;;;42.80;23.47;;;;;;;;;;5037023;28;20462;-81
2023/05/12 03:08:41;;;;;;;53.13;24.77;;;;;;;;;;5037019;28;20400;-81
2023/05/12 03:11:07;;;;;;;46.90;22.77;;;;;;;;;;5021348;28;20422;-81
2023/05/12 03:13:33;;;;;;;52.37;24.37;;;;;;;;;;5036615;28;20461;-81
2023/05/12 03:16:01;;;;;;;55.17;24.00;;;;;;;;;;5020428;28;20497;-81
2023/05/12 03:18:27;;;;;;;48.43;22.93;;;;;;;;;;5036237;28;20451;-81
2023/05/12 03:20:54;;;;;;;44.13;22.00;;;;;;;;;;5036494;28;20420;-81
2023/05/12 03:23:20;;;;;;;45.23;21.80;;;;;;;;;;5041314;28;20431;-81
2023/05/12 03:25:46;;;;;;;40.10;19.47;;;;;;;;;;5073050;28;20461;-81
2023/05/12 03:28:12;;;;;;;55.30;26.00;;;;;;;;;;5073632;28;20750;-81
2023/05/12 03:30:38;;;;;;;37.90;19.70;;;;;;;;;;5073645;28;20173;-82
2023/05/12 03:33:04;;;;;;;34.07;18.07;;;;;;;;;;5055800;28;20494;-82
2023/05/12 03:35:30;;;;;;;37.20;18.87;;;;;;;;;;5074148;28;20482;-83
2023/05/12 03:37:56;;;;;;;32.67;17.03;;;;;;;;;;5038834;28;20617;-82
2023/05/12 03:40:22;;;;;;;41.78;21.73;;;;;;;;;;5072804;28;20403;-80
2023/05/12 03:42:48;;;;;;;24.77;13.47;;;;;;;;;;5055674;28;20310;-84
2023/05/12 03:45:14;;;;;;;19.97;13.10;;;;;;;;;;5074201;28;20399;-83
2023/05/12 03:47:40;;;;;;;20.97;11.57;;;;;;;;;;5055861;28;20430;-84
2023/05/12 03:50:06;;;;;;;15.63;9.80;;;;;;;;;;5077116;28;20483;-84
2023/05/12 03:52:33;;;;;;;14.50;9.90;;;;;;;;;;5059464;28;20391;-84
2023/05/12 03:54:59;;;;;;;11.83;8.70;;;;;;;;;;5042991;28;20458;-83
2023/05/12 03:57:25;;;;;;;13.10;8.40;;;;;;;;;;5077382;28;20406;-84
2023/05/12 03:59:51;;;;;;;11.70;7.90;;;;;;;;;;5059492;28;20467;-83
2023/05/12 04:02:17;;;;;;;12.87;8.37;;;;;;;;;;5077195;28;20895;-83
2023/05/12 04:04:43;;;;;;;9.63;7.87;;;;;;;;;;5042285;28;20434;-83
2023/05/12 04:07:09;;;;;;;11.40;7.53;;;;;;;;;;5042977;28;20415;-84
2023/05/12 04:09:34;;;;;;;10.30;8.27;;;;;;;;;;5076518;28;20960;-84
2023/05/12 04:12:00;;;;;;;11.90;8.10;;;;;;;;;;5042345;28;20417;-83
2023/05/12 04:14:27;;;;;;;12.27;9.20;;;;;;;;;;5058664;28;20569;-87
2023/05/12 04:16:53;;;;;;;10.23;8.00;;;;;;;;;;5059093;28;20410;-84
2023/05/12 04:19:19;;;;;;;10.83;7.43;;;;;;;;;;5058900;28;20541;-84
2023/05/12 04:21:45;;;;;;;8.17;6.23;;;;;;;;;;5058777;28;20518;-84
2023/05/12 04:24:11;;;;;;;8.60;6.63;;;;;;;;;;5059081;28;20769;-84
2023/05/12 04:26:36;;;;;;;4.90;3.80;;;;;;;;;;5058504;28;20192;-84
2023/05/12 04:29:02;;;;;;;4.53;4.13;;;;;;;;;;5058960;28;20466;-84
2023/05/12 04:31:28;;;;;;;7.00;4.80;;;;;;;;;;5041887;28;20415;-85
2023/05/12 04:33:54;;;;;;;9.93;5.03;;;;;;;;;;5058321;28;20485;-84
2023/05/12 04:36:20;;;;;;;8.20;5.40;;;;;;;;;;5042149;28;20459;-84
2023/05/12 04:38:46;;;;;;;8.37;5.87;;;;;;;;;;5041980;28;20914;-83
2023/05/12 04:41:13;;;;;;;11.10;7.77;;;;;;;;;;5058717;28;20399;-83
2023/05/12 04:43:38;;;;;;;13.50;8.80;;;;;;;;;;5058386;28;20575;-83
2023/05/12 04:46:04;;;;;;;12.50;8.10;;;;;;;;;;5058793;28;20506;-84
2023/05/12 04:48:30;;;;;;;11.70;8.37;;;;;;;;;;5058689;28;20403;-84
2023/05/12 04:51:00;;;;;;;14.87;9.63;;;;;;;;;;5076690;28;20883;-84
2023/05/12 04:53:26;;;;;;;12.40;9.03;;;;;;;;;;5058428;28;20910;-84
2023/05/12 04:55:52;;;;;;;13.90;10.30;;;;;;;;;;5058022;28;20465;-81
2023/05/12 04:58:18;;;;;;;16.00;10.80;;;;;;;;;;5058119;28;20419;-84
2023/05/12 05:00:44;;;;;;;20.23;10.73;;;;;;;;;;5074835;28;20906;-84
2023/05/12 05:03:10;;;;;;;25.50;11.87;;;;;;;;;;5076047;28;20415;-81
2023/05/12 05:05:36;;;;;;;21.40;11.90;;;;;;;;;;5041198;28;20485;-81
2023/05/12 05:08:02;;;;;;;15.40;11.13;;;;;;;;;;5076170;28;20411;-81
2023/05/12 05:10:28;;;;;;;16.20;10.77;;;;;;;;;;5058097;28;20492;-80
2023/05/12 05:12:54;;;;;;;13.05;8.82;;;;;;;;;;5075674;28;20407;-83
2023/05/12 05:15:20;;;;;;;12.00;7.93;;;;;;;;;;5057866;28;20205;-83
2023/05/12 05:17:48;;;;;;;8.47;6.70;;;;;;;;;;5058044;28;20181;-84
2023/05/12 05:20:14;;;;;;;7.85;6.90;;;;;;;;;;5075992;28;20395;-83
2023/05/12 05:22:40;;;;;;;8.23;6.87;;;;;;;;;;5057574;28;20304;-83
2023/05/12 05:25:07;;;;;;;7.75;6.22;;;;;;;;;;5057791;28;20416;-82
2023/05/12 05:27:33;;;;;;;8.55;6.10;;;;;;;;;;5075436;28;20208;-83
2023/05/12 05:29:59;;;;;;;7.47;6.20;;;;;;;;;;5041374;28;20184;-82
2023/05/12 05:32:25;;;;;;;7.93;6.40;;;;;;;;;;5058035;28;20418;-82
2023/05/12 05:34:51;;;;;;;8.27;6.80;;;;;;;;;;5057320;28;20936;-82
2023/05/12 05:37:18;;;;;;;9.10;6.23;;;;;;;;;;5041450;28;20411;-83
2023/05/12 05:39:44;;;;;;;9.52;6.35;;;;;;;;;;5057479;28;20404;-82
2023/05/12 05:42:10;;;;;;;6.73;5.80;;;;;;;;;;5057642;28;20188;-83
2023/05/12 05:44:36;;;;;;;7.60;6.00;;;;;;;;;;5057111;28;20407;-83
2023/05/12 05:47:02;;;;;;;8.03;5.80;;;;;;;;;;5057568;28;20180;-83
2023/05/12 05:49:28;;;;;;;7.85;7.05;;;;;;;;;;5057351;28;20415;-83
2023/05/12 05:51:54;;;;;;;7.53;6.70;;;;;;;;;;5057071;28;20217;-83
2023/05/12 05:54:22;;;;;;;8.70;6.97;;;;;;;;;;5057273;28;20790;-83
2023/05/12 05:56:48;;;;;;;9.48;6.45;;;;;;;;;;5074792;28;20920;-83
2023/05/12 05:59:14;;;;;;;7.90;6.30;;;;;;;;;;5057196;28;20227;-83
2023/05/12 06:01:40;;;;;;;8.50;6.17;;;;;;;;;;5040478;28;20926;-83
2023/05/12 06:04:06;;;;;;;9.13;5.80;;;;;;;;;;5040300;28;20423;-83
2023/05/12 06:06:32;;;;;;;8.20;6.43;;;;;;;;;;5057100;28;20419;-83
2023/05/12 06:08:58;;;;;;;11.33;8.63;;;;;;;;;;5057065;28;20403;-83
2023/05/12 06:11:24;;;;;;;6.67;5.97;;;;;;;;;;5056533;28;20502;-83
2023/05/12 06:13:50;;;;;;;7.60;6.80;;;;;;;;;;5039790;28;20752;-83
2023/05/12 06:16:16;;;;;;;6.87;6.20;;;;;;;;;;5075182;28;20478;-83
2023/05/12 06:18:42;;;;;;;6.20;5.60;;;;;;;;;;5057137;28;20823;-82
2023/05/12 06:21:08;;;;;;;7.73;6.87;;;;;;;;;;5074977;28;20408;-83
2023/05/12 06:23:34;;;;;;;7.63;6.00;;;;;;;;;;5074917;28;20448;-83
2023/05/12 06:26:00;;;;;;;6.83;6.13;;;;;;;;;;5040373;28;20287;-83
2023/05/12 06:28:26;;;;;;;18.40;7.50;;;;;;;;;;5074788;28;20810;-83
2023/05/12 06:30:52;;;;;;;6.70;6.00;;;;;;;;;;5056860;28;20415;-82
2023/05/12 06:33:18;;;;;;;7.10;6.40;;;;;;;;;;5039974;28;20553;-82
2023/05/12 06:35:44;;;;;;;7.03;6.30;;;;;;;;;;5039856;28;20478;-82
2023/05/12 06:38:10;;;;;;;8.60;5.73;;;;;;;;;;5074871;28;20423;-82
2023/05/12 06:40:36;;;;;;;6.90;5.57;;;;;;;;;;5056925;28;20887;-87
2023/05/12 06:43:02;;;;;;;8.30;6.43;;;;;;;;;;5040545;28;20419;-82
2023/05/12 06:45:28;;;;;;;10.20;5.53;;;;;;;;;;5040371;28;20784;-82
2023/05/12 06:47:54;;;;;;;6.30;5.03;;;;;;;;;;5039953;28;20423;-80
2023/05/12 06:50:20;;;;;;;6.50;5.90;;;;;;;;;;5074708;28;20438;-82
2023/05/12 06:52:46;;;;;;;5.50;5.00;;;;;;;;;;5040032;28;20434;-83
2023/05/12 06:55:12;;;;;;;5.73;4.90;;;;;;;;;;5040302;28;20848;-82
2023/05/12 06:57:38;;;;;;;5.57;5.07;;;;;;;;;;5056518;28;20414;-84
2023/05/12 07:00:04;;;;;;;5.27;4.87;;;;;;;;;;5074616;28;20414;-82
2023/05/12 07:02:30;;;;;;;4.07;3.53;;;;;;;;;;5056347;28;20517;-83
2023/05/12 07:04:56;;;;;;;4.90;3.97;;;;;;;;;;5039533;28;20469;-82
2023/05/12 07:07:22;;;;;;;4.40;3.50;;;;;;;;;;5056818;28;20418;-82
2023/05/12 07:09:49;;;;;;;4.17;3.77;;;;;;;;;;5056613;28;20407;-83
2023/05/12 07:12:15;;;;;;;5.07;4.27;;;;;;;;;;5074140;28;20407;-83
2023/05/12 07:14:41;;;;;;;4.87;4.47;;;;;;;;;;5073864;28;20449;-82
2023/05/12 07:17:07;;;;;;;4.70;3.80;;;;;;;;;;5040322;28;20467;-83
2023/05/12 07:19:34;;;;;;;4.20;3.80;;;;;;;;;;5056547;28;20426;-83
2023/05/12 07:22:00;;;;;;;3.90;3.60;;;;;;;;;;5056302;28;20415;-83
2023/05/12 07:24:26;;;;;;;4.20;3.60;;;;;;;;;;5058625;28;20517;-83
2023/05/12 07:26:52;;;;;;;4.37;3.87;;;;;;;;;;5060378;28;20418;-83
2023/05/12 07:29:18;;;;;;;3.70;3.40;;;;;;;;;;5060334;28;20472;-83
2023/05/12 07:31:44;;;;;;;8.00;3.57;;;;;;;;;;5077980;28;20806;-84
2023/05/12 07:34:10;;;;;;;3.87;3.47;;;;;;;;;;5056427;28;20472;-80
2023/05/12 07:36:36;;;;;;;3.53;3.10;;;;;;;;;;5058006;28;20797;-81
2023/05/12 07:39:02;;;;;;;2.83;2.63;;;;;;;;;;5056561;28;20420;-81
2023/05/12 07:41:28;;;;;;;5.83;3.10;;;;;;;;;;5057606;28;20922;-84
2023/05/12 07:43:54;;;;;;;3.70;2.83;;;;;;;;;;5056371;28;20455;-84
2023/05/12 07:46:20;;;;;;;3.30;2.57;;;;;;;;;;5056213;28;20908;-84
2023/05/12 07:48:46;;;;;;;2.80;2.40;;;;;;;;;;5040092;28;20415;-84
2023/05/12 07:51:12;;;;;;;4.27;2.37;;;;;;;;;;5056439;28;20470;-84
2023/05/12 07:53:38;;;;;;;2.57;2.37;;;;;;;;;;5056342;28;20522;-84
2023/05/12 07:56:06;;;;;;;5.10;2.80;;;;;;;;;;5055819;28;20478;-84
2023/05/12 07:58:32;;;;;;;3.30;3.00;;;;;;;;;;5056072;28;20416;-84
2023/05/12 08:00:59;;;;;;;3.80;2.77;;;;;;;;;;5039584;28;20424;-84
2023/05/12 08:03:25;;;;;;;3.40;3.10;;;;;;;;;;5039275;28;20428;-84
2023/05/12 08:05:51;;;;;;;2.63;2.43;;;;;;;;;;5055888;28;20455;-84
2023/05/12 08:08:17;;;;;;;4.30;3.30;;;;;;;;;;5056319;28;20766;-84
2023/05/12 08:10:43;;;;;;;3.10;2.83;;;;;;;;;;5039153;28;20420;-85
2023/05/12 08:13:09;;;;;;;2.80;2.57;;;;;;;;;;5055702;28;20400;-84
2023/05/12 08:15:35;;;;;;;11.00;3.60;;;;;;;;;;5056804;28;20455;-81
2023/05/12 08:18:01;;;;;;;3.90;3.57;;;;;;;;;;5056999;28;20404;-82
2023/05/12 08:20:27;;;;;;;3.80;3.00;;;;;;;;;;5055773;28;20390;-85
2023/05/12 08:22:53;;;;;;;3.23;2.93;;;;;;;;;;5055675;28;20995;-84
2023/05/12 08:25:19;;;;;;;2.77;2.57;;;;;;;;;;5056915;28;20416;-84
2023/05/12 08:27:45;;;;;;;3.80;3.17;;;;;;;;;;5055232;28;20423;-85
2023/05/12 08:30:11;;;;;;;2.80;2.60;;;;;;;;;;5057415;28;20487;-83
2023/05/12 08:32:38;;;;;;;3.63;3.07;;;;;;;;;;5056816;28;20495;-82
2023/05/12 08:35:04;;;;;;;3.47;2.60;;;;;;;;;;5057673;28;20463;-84
2023/05/12 08:37:30;;;;;;;3.50;3.20;;;;;;;;;;5059020;28;20461;-82
2023/05/12 08:39:56;;;;;;;3.17;2.87;;;;;;;;;;5058561;28;20411;-82
2023/05/12 08:42:39;;;;;;;3.20;2.50;;;;;;;;;;5076352;28;20403;-82
2023/05/12 08:45:06;;;;;;;2.50;2.30;;;;;;;;;;5058577;28;20937;-82
2023/05/12 08:47:33;;;;;;;3.87;2.70;;;;;;;;;;5076242;28;20399;-81
2023/05/12 08:50:00;;;;;;;2.87;2.67;;;;;;;;;;5058441;28;20469;-82
2023/05/12 08:52:31;;;;;;;3.10;2.60;;;;;;;;;;5076653;28;20439;-82
2023/05/12 08:54:57;;;;;;;3.47;2.20;;;;;;;;;;5075667;28;20463;-84
2023/05/12 08:57:23;;;;;;;3.03;2.13;;;;;;;;;;5058203;28;20394;-84
2023/05/12 08:59:52;;;;;;;4.20;2.07;;;;;;;;;;5076243;28;20791;-84
2023/05/12 09:02:19;;;;;;;2.60;2.40;;;;;;;;;;5076382;28;20469;-84
2023/05/12 09:04:47;;;;;;;2.13;1.93;;;;;;;;;;5058125;28;20492;-84
2023/05/12 09:07:13;;;;;;;5.37;2.70;;;;;;;;;;5058642;28;20378;-83
2023/05/12 09:09:40;;;;;;;2.47;2.27;;;;;;;;;;5058036;28;20419;-83
2023/05/12 09:12:09;;;;;;;2.23;2.03;;;;;;;;;;5057827;28;20377;-84
2023/05/12 09:14:36;;;;;;;1.87;1.77;;;;;;;;;;5075826;28;20485;-83
2023/05/12 09:17:04;;;;;;;2.60;2.40;;;;;;;;;;5057491;28;21002;-84
2023/05/12 09:19:30;;;;;;;2.10;1.60;;;;;;;;;;5057649;28;20386;-84
2023/05/12 09:21:57;;;;;;;1.83;1.67;;;;;;;;;;5057367;28;20559;-83
2023/05/12 09:24:33;;;;;;;1.97;1.87;;;;;;;;;;5057571;28;20390;-84
2023/05/12 09:26:59;;;;;;;1.73;1.57;;;;;;;;;;5057304;28;20417;-84
2023/05/12 09:29:25;;;;;;;3.03;2.17;;;;;;;;;;5058050;28;20568;-84
2023/05/12 09:31:51;;;;;;;3.60;1.90;;;;;;;;;;5062901;28;20464;-84
2023/05/12 09:34:18;;;;;;;1.80;1.70;;;;;;;;;;5075653;28;20512;-90
2023/05/12 09:36:47;;;;;;;16.47;2.50;;;;;;;;;;5076310;28;20991;-91
2023/05/12 09:39:13;;;;;;;1.60;1.50;;;;;;;;;;5057729;28;20386;-91
2023/05/12 09:41:40;;;;;;;1.73;1.63;;;;;;;;;;5084164;28;20374;-93
2023/05/12 09:44:07;;;;;;;1.47;1.33;;;;;;;;;;5068485;28;20509;-92
2023/05/12 09:46:33;;;;;;;2.03;1.60;;;;;;;;;;5085380;28;20409;-93
2023/05/12 09:48:59;;;;;;;10.63;2.70;;;;;;;;;;5089651;28;20362;-91
2023/05/12 09:51:26;;;;;;;1.90;1.40;;;;;;;;;;5070260;28;20382;-91
2023/05/12 09:53:52;;;;;;;1.73;1.63;;;;;;;;;;5062419;28;20543;-90
2023/05/12 09:56:18;;;;;;;2.47;1.40;;;;;;;;;;5083258;28;20462;-91
2023/05/12 09:58:46;;;;;;;1.30;1.20;;;;;;;;;;5060665;28;20783;-90
2023/05/12 10:01:13;;;;;;;1.87;1.30;;;;;;;;;;5058865;28;20470;-90
2023/05/12 10:03:41;;;;;;;1.70;1.60;;;;;;;;;;5077399;28;20430;-89
2023/05/12 10:06:14;;;;;;;1.40;1.20;;;;;;;;;;5077447;28;20407;-90
2023/05/12 10:08:46;;;;;;;1.93;1.50;;;;;;;;;;5058035;28;20425;-91
2023/05/12 10:11:12;;;;;;;3.20;1.27;;;;;;;;;;5059959;28;20818;-90
2023/05/12 10:13:38;;;;;;;2.47;1.70;;;;;;;;;;5076629;28;20410;-90
2023/05/12 10:16:05;;;;;;;2.77;1.67;;;;;;;;;;5075969;28;20462;-89
2023/05/12 10:18:33;;;;;;;2.40;1.87;;;;;;;;;;5058584;28;20411;-90
2023/05/12 10:21:00;;;;;;;1.90;1.80;;;;;;;;;;5056236;28;20411;-81
2023/05/12 10:23:26;;;;;;;1.90;1.50;;;;;;;;;;5073983;28;20455;-81
2023/05/12 10:25:57;;;;;;;2.03;1.77;;;;;;;;;;5055735;28;20413;-81
2023/05/12 10:28:23;;;;;;;3.00;1.70;;;;;;;;;;5074080;28;20719;-81
2023/05/12 10:30:49;;;;;;;3.90;2.20;;;;;;;;;;5039643;28;20423;-85
2023/05/12 10:33:15;;;;;;;1.93;1.83;;;;;;;;;;5073591;28;20467;-81
2023/05/12 10:35:42;;;;;;;2.20;2.00;;;;;;;;;;5073588;28;20482;-81
2023/05/12 10:38:10;;;;;;;5.53;2.30;;;;;;;;;;5055824;28;20427;-81
2023/05/12 10:40:36;;;;;;;2.60;2.40;;;;;;;;;;5056022;28;20410;-81
2023/05/12 10:43:02;;;;;;;2.40;1.90;;;;;;;;;;5074121;28;20715;-81
2023/05/12 10:45:29;;;;;;;3.13;1.90;;;;;;;;;;5074044;28;20408;-81
2023/05/12 10:48:04;;;;;;;1.93;1.73;;;;;;;;;;5073496;28;20425;-82
2023/05/12 10:50:30;;;;;;;2.13;1.87;;;;;;;;;;5055974;28;20489;-82
2023/05/12 10:52:57;;;;;;;2.33;2.13;;;;;;;;;;5055904;28;20417;-82
2023/05/12 10:55:30;;;;;;;2.20;1.93;;;;;;;;;;5055734;28;20473;-82
2023/05/12 10:58:03;;;;;;;3.10;2.10;;;;;;;;;;5073087;28;20374;-82
2023/05/12 11:00:29;;;;;;;7.10;2.30;;;;;;;;;;5056149;28;20877;-82
2023/05/12 11:02:55;;;;;;;10.20;2.00;;;;;;;;;;5055457;28;20434;-82
2023/05/12 11:05:21;;;;;;;3.00;1.80;;;;;;;;;;5073736;28;20439;-82
2023/05/12 11:07:48;;;;;;;2.07;1.90;;;;;;;;;;5055342;28;20403;-82
2023/05/12 11:10:14;;;;;;;2.00;1.80;;;;;;;;;;5055494;28;20423;-82
2023/05/12 11:12:42;;;;;;;2.47;2.10;;;;;;;;;;5055211;28;20423;-82
2023/05/12 11:15:08;;;;;;;3.83;1.90;;;;;;;;;;5073008;28;20498;-83
2023/05/12 11:17:38;;;;;;;2.80;1.80;;;;;;;;;;5073015;28;20431;-82
2023/05/12 11:20:04;;;;;;;3.10;1.80;;;;;;;;;;5072964;28;20399;-83
2023/05/12 11:22:30;;;;;;;2.40;2.20;;;;;;;;;;5073092;28;20399;-83
2023/05/12 11:24:56;;;;;;;4.93;2.50;;;;;;;;;;5054822;28;20506;-84
2023/05/12 11:27:22;;;;;;;6.80;2.93;;;;;;;;;;5055261;28;20415;-83
2023/05/12 11:29:56;;;;;;;2.23;2.03;;;;;;;;;;5038824;28;20392;-83
2023/05/12 11:32:22;;;;;;;2.30;2.10;;;;;;;;;;5055406;28;20433;-83
2023/05/12 11:34:48;;;;;;;4.37;2.10;;;;;;;;;;5054976;28;20505;-81
2023/05/12 11:37:14;;;;;;;2.43;1.50;;;;;;;;;;5073043;28;20540;-81
2023/05/12 11:39:41;;;;;;;6.97;2.63;;;;;;;;;;5055011;28;20429;-81
2023/05/12 11:42:09;;;;;;;2.53;2.33;;;;;;;;;;5038241;28;20415;-80
2023/05/12 11:44:35;;;;;;;2.70;2.50;;;;;;;;;;5073186;28;20378;-80
2023/05/12 11:47:10;;;;;;;3.10;2.23;;;;;;;;;;5038353;28;20465;-80
2023/05/12 11:49:55;;;;;;;2.50;2.23;;;;;;;;;;5054847;28;20415;-80
2023/05/12 11:52:22;;;;;;;3.83;2.40;;;;;;;;;;5072157;28;20407;-80
2023/05/12 11:54:52;;;;;;;2.40;2.20;;;;;;;;;;5072691;28;20430;-80
2023/05/12 11:57:25;;;;;;;3.07;2.77;;;;;;;;;;5072522;28;20415;-80
2023/05/12 12:00:03;;;;;;;2.97;2.67;;;;;;;;;;5055132;28;20450;-80
2023/05/12 12:02:29;;;;;;;6.93;3.17;;;;;;;;;;5054761;28;20437;-80
2023/05/12 12:04:55;;;;;;;4.90;2.60;;;;;;;;;;5054657;28;20918;-81
2023/05/12 12:07:32;;;;;;;3.87;2.33;;;;;;;;;;5055203;28;20373;-80
2023/05/12 12:09:58;;;;;;;2.50;2.30;;;;;;;;;;5054447;28;20902;-81
2023/05/12 12:12:24;;;;;;;4.70;3.27;;;;;;;;;;5076414;28;20374;-80
2023/05/12 12:14:50;;;;;;;3.13;2.37;;;;;;;;;;5058291;28;20404;-81
2023/05/12 12:17:16;;;;;;;2.63;2.43;;;;;;;;;;5041584;28;20508;-81
2023/05/12 12:19:42;;;;;;;2.57;2.33;;;;;;;;;;5058106;28;20390;-81
2023/05/12 12:22:08;;;;;;;3.07;1.90;;;;;;;;;;5075711;28;20911;-81
2023/05/12 12:24:34;;;;;;;5.13;2.60;;;;;;;;;;5041507;28;20476;-81
2023/05/12 12:27:01;;;;;;;2.70;2.30;;;;;;;;;;5057763;28;20419;-81
2023/05/12 12:29:27;;;;;;;2.70;2.23;;;;;;;;;;5058015;28;20460;-81
2023/05/12 12:31:53;;;;;;;6.00;2.30;;;;;;;;;;5075804;28;20458;-81
2023/05/12 12:34:19;;;;;;;4.70;1.90;;;;;;;;;;5075409;28;20812;-81
2023/05/12 12:36:46;;;;;;;3.13;1.90;;;;;;;;;;5075699;28;20454;-81
2023/05/12 12:39:13;;;;;;;2.60;1.90;;;;;;;;;;5058016;28;20433;-81
2023/05/12 12:41:39;;;;;;;3.03;1.90;;;;;;;;;;5057688;28;20415;-81
2023/05/12 12:44:05;;;;;;;2.17;1.97;;;;;;;;;;5075390;28;20415;-81
2023/05/12 12:46:31;;;;;;;2.43;2.10;;;;;;;;;;5057782;28;20821;-81
2023/05/12 12:48:58;;;;;;;3.60;2.00;;;;;;;;;;5056614;28;20785;-87
2023/05/12 12:51:24;;;;;;;2.30;2.10;;;;;;;;;;5057108;28;20899;-82
2023/05/12 12:53:50;;;;;;;2.40;2.20;;;;;;;;;;5057464;28;20968;-81
2023/05/12 12:56:17;;;;;;;2.50;2.30;;;;;;;;;;5040646;28;20470;-81
2023/05/12 12:58:43;;;;;;;2.87;2.10;;;;;;;;;;5057124;28;20415;-81
2023/05/12 13:01:09;;;;;;;2.50;2.30;;;;;;;;;;5074741;28;20441;-81
2023/05/12 13:03:35;;;;;;;2.40;1.90;;;;;;;;;;5075259;28;20509;-81
2023/05/12 13:06:01;;;;;;;2.60;2.10;;;;;;;;;;5057238;28;20407;-81
2023/05/12 13:08:27;;;;;;;4.13;1.90;;;;;;;;;;5057309;28;20415;-81
2023/05/12 13:10:53;;;;;;;2.57;2.20;;;;;;;;;;5075043;28;20729;-81
2023/05/12 13:13:19;;;;;;;4.70;1.93;;;;;;;;;;5056878;28;20418;-81
2023/05/12 13:15:46;;;;;;;2.20;2.00;;;;;;;;;;5057166;28;20473;-81
2023/05/12 13:18:12;;;;;;;4.60;2.00;;;;;;;;;;5056611;28;20390;-81
2023/05/12 13:20:39;;;;;;;1.93;1.83;;;;;;;;;;5057130;28;20806;-81
2023/05/12 13:23:05;;;;;;;3.70;2.00;;;;;;;;;;5056542;28;20407;-81
2023/05/12 13:25:31;;;;;;;2.60;2.40;;;;;;;;;;5074943;28;20404;-80
2023/05/12 13:27:57;;;;;;;3.60;2.00;;;;;;;;;;5074810;28;20403;-80
2023/05/12 13:30:23;;;;;;;3.90;2.40;;;;;;;;;;5040040;28;20466;-80
2023/05/12 13:32:50;;;;;;;3.80;2.40;;;;;;;;;;5056322;28;20442;-81
2023/05/12 13:35:16;;;;;;;6.10;2.30;;;;;;;;;;5056530;28;20498;-81
2023/05/12 13:37:42;;;;;;;3.40;1.80;;;;;;;;;;5057072;28;20450;-80
2023/05/12 13:40:08;;;;;;;3.57;2.70;;;;;;;;;;5056615;28;20412;-80
2023/05/12 13:42:34;;;;;;;1.97;1.70;;;;;;;;;;5040332;28;20674;-80
2023/05/12 13:45:00;;;;;;;4.57;2.50;;;;;;;;;;5056499;28;20413;-80
2023/05/12 13:47:27;;;;;;;2.33;2.13;;;;;;;;;;5056460;28;20423;-80
2023/05/12 13:49:55;;;;;;;3.60;2.30;;;;;;;;;;5039838;28;20910;-81
2023/05/12 13:52:21;;;;;;;4.60;2.63;;;;;;;;;;5074054;28;20867;-81
2023/05/12 13:54:47;;;;;;;3.20;2.50;;;;;;;;;;5074136;28;20395;-80
2023/05/12 13:57:13;;;;;;;4.17;2.20;;;;;;;;;;5039269;28;20422;-81
2023/05/12 13:59:39;;;;;;;3.63;2.33;;;;;;;;;;5074077;28;20407;-84
2023/05/12 14:02:08;;;;;;;3.80;2.30;;;;;;;;;;5055882;28;20805;-83
2023/05/12 14:04:34;;;;;;;3.53;2.70;;;;;;;;;;5073763;28;20933;-83
2023/05/12 14:07:00;;;;;;;5.60;2.30;;;;;;;;;;5056141;28;20401;-83
2023/05/12 14:09:27;;;;;;;6.40;2.20;;;;;;;;;;5055710;28;20814;-83
2023/05/12 14:11:53;;;;;;;3.53;2.03;;;;;;;;;;5056409;28;20762;-81
2023/05/12 14:14:19;;;;;;;3.70;2.53;;;;;;;;;;5056237;28;20406;-81
2023/05/12 14:16:45;;;;;;;2.77;2.57;;;;;;;;;;5073969;28;20458;-82
2023/05/12 14:19:11;;;;;;;3.20;2.20;;;;;;;;;;5055578;28;20766;-82
2023/05/12 14:21:39;;;;;;;3.10;2.20;;;;;;;;;;5055875;28;20422;-82
2023/05/12 14:24:06;;;;;;;2.97;2.30;;;;;;;;;;5039271;28;20433;-82
2023/05/12 14:26:32;;;;;;;3.37;2.07;;;;;;;;;;5073710;28;20788;-82
2023/05/12 14:28:58;;;;;;;2.30;2.10;;;;;;;;;;5039342;28;20885;-82